sensor_id;sensor_type;location;lat;lon;timestamp;P1;durP1;ratioP1;P2;durP2;ratioP2
39502;SDS011;26970;49.900;10.774;2022-07-30T00:01:35;21.05;;;18.23;;
39502;SDS011;26970;49.900;10.774;2022-07-30T00:04:01;24.65;;;18.58;;
39502;SDS011;26970;49.900;10.774;2022-07-30T00:06:27;22.63;;;18.75;;
39502;SDS011;26970;49.900;10.774;2022-07-30T00:08:52;20.38;;;18.23;;
39502;SDS011;26970;49.900;10.774;2022-07-30T00:11:18;23.48;;;18.63;;
39502;SDS011;26970;49.900;10.774;2022-07-30T00:13:45;24.92;;;18.90;;
39502;SDS011;26970;49.900;10.774;2022-07-30T00:16:11;21.55;;;18.27;;
39502;SDS011;26970;49.900;10.774;2022-07-30T00:18:36;21.45;;;19.20;;
39502;SDS011;26970;49.900;10.774;2022-07-30T00:21:02;22.52;;;20.08;;
39502;SDS011;26970;49.900;10.774;2022-07-30T00:23:27;21.40;;;19.10;;
39502;SDS011;26970;49.900;10.774;2022-07-30T00:25:53;26.15;;;21.02;;
39502;SDS011;26970;49.900;10.774;2022-07-30T00:28:19;23.23;;;20.42;;
39502;SDS011;26970;49.900;10.774;2022-07-30T00:30:44;21.83;;;19.52;;
39502;SDS011;26970;49.900;10.774;2022-07-30T00:33:10;20.15;;;18.05;;
39502;SDS011;26970;49.900;10.774;2022-07-30T00:35:35;21.13;;;18.92;;
39502;SDS011;26970;49.900;10.774;2022-07-30T00:38:01;21.40;;;19.13;;
39502;SDS011;26970;49.900;10.774;2022-07-30T00:40:26;22.75;;;19.10;;
39502;SDS011;26970;49.900;10.774;2022-07-30T00:42:52;23.02;;;18.23;;
39502;SDS011;26970;49.900;10.774;2022-07-30T00:45:18;21.80;;;19.55;;
39502;SDS011;26970;49.900;10.774;2022-07-30T00:47:44;20.40;;;18.20;;
39502;SDS011;26970;49.900;10.774;2022-07-30T00:50:11;21.67;;;18.85;;
39502;SDS011;26970;49.900;10.774;2022-07-30T00:52:37;22.63;;;18.60;;
39502;SDS011;26970;49.900;10.774;2022-07-30T00:55:05;26.52;;;19.20;;
39502;SDS011;26970;49.900;10.774;2022-07-30T00:57:32;24.27;;;19.80;;
39502;SDS011;26970;49.900;10.774;2022-07-30T00:59:57;22.15;;;17.58;;
39502;SDS011;26970;49.900;10.774;2022-07-30T01:02:23;23.67;;;19.85;;
39502;SDS011;26970;49.900;10.774;2022-07-30T01:04:49;25.58;;;21.65;;
39502;SDS011;26970;49.900;10.774;2022-07-30T01:07:14;29.73;;;21.50;;
39502;SDS011;26970;49.900;10.774;2022-07-30T01:09:40;25.58;;;21.55;;
39502;SDS011;26970;49.900;10.774;2022-07-30T01:12:24;24.02;;;20.33;;
39502;SDS011;26970;49.900;10.774;2022-07-30T01:14:51;23.45;;;20.08;;
39502;SDS011;26970;49.900;10.774;2022-07-30T01:17:19;27.23;;;20.08;;
39502;SDS011;26970;49.900;10.774;2022-07-30T01:19:44;30.90;;;20.60;;
39502;SDS011;26970;49.900;10.774;2022-07-30T01:27:34;29.70;;;23.02;;
39502;SDS011;26970;49.900;10.774;2022-07-30T01:30:04;27.90;;;23.58;;
39502;SDS011;26970;49.900;10.774;2022-07-30T01:32:32;30.83;;;23.88;;
39502;SDS011;26970;49.900;10.774;2022-07-30T01:35:00;30.33;;;23.63;;
39502;SDS011;26970;49.900;10.774;2022-07-30T01:37:28;30.00;;;22.48;;
39502;SDS011;26970;49.900;10.774;2022-07-30T01:39:55;26.38;;;22.25;;
39502;SDS011;26970;49.900;10.774;2022-07-30T01:42:22;27.33;;;23.40;;
39502;SDS011;26970;49.900;10.774;2022-07-30T01:44:50;25.63;;;22.02;;
39502;SDS011;26970;49.900;10.774;2022-07-30T01:47:17;35.90;;;23.42;;
39502;SDS011;26970;49.900;10.774;2022-07-30T01:49:46;33.50;;;25.15;;
39502;SDS011;26970;49.900;10.774;2022-07-30T01:52:15;27.73;;;24.23;;
39502;SDS011;26970;49.900;10.774;2022-07-30T01:54:43;29.00;;;23.73;;
39502;SDS011;26970;49.900;10.774;2022-07-30T01:57:10;27.02;;;22.75;;
39502;SDS011;26970;49.900;10.774;2022-07-30T01:59:38;27.52;;;21.90;;
39502;SDS011;26970;49.900;10.774;2022-07-30T02:02:05;22.95;;;20.55;;
39502;SDS011;26970;49.900;10.774;2022-07-30T02:04:31;24.77;;;20.95;;
39502;SDS011;26970;49.900;10.774;2022-07-30T02:07:03;26.00;;;21.05;;
39502;SDS011;26970;49.900;10.774;2022-07-30T02:09:40;25.70;;;19.70;;
39502;SDS011;26970;49.900;10.774;2022-07-30T02:12:15;23.95;;;19.10;;
39502;SDS011;26970;49.900;10.774;2022-07-30T02:17:59;23.80;;;19.27;;
39502;SDS011;26970;49.900;10.774;2022-07-30T02:20:34;27.02;;;20.45;;
39502;SDS011;26970;49.900;10.774;2022-07-30T02:23:01;25.20;;;19.95;;
39502;SDS011;26970;49.900;10.774;2022-07-30T02:25:31;27.42;;;19.48;;
39502;SDS011;26970;49.900;10.774;2022-07-30T02:28:01;22.73;;;19.92;;
39502;SDS011;26970;49.900;10.774;2022-07-30T02:30:32;23.48;;;20.90;;
39502;SDS011;26970;49.900;10.774;2022-07-30T02:33:01;27.83;;;20.05;;
39502;SDS011;26970;49.900;10.774;2022-07-30T02:35:29;23.00;;;19.73;;
39502;SDS011;26970;49.900;10.774;2022-07-30T02:37:56;26.70;;;19.38;;
39502;SDS011;26970;49.900;10.774;2022-07-30T02:40:23;22.88;;;20.40;;
39502;SDS011;26970;49.900;10.774;2022-07-30T02:42:50;25.08;;;18.30;;
39502;SDS011;26970;49.900;10.774;2022-07-30T02:45:17;22.00;;;19.52;;
39502;SDS011;26970;49.900;10.774;2022-07-30T02:47:44;21.25;;;18.23;;
39502;SDS011;26970;49.900;10.774;2022-07-30T02:50:12;19.13;;;16.95;;
39502;SDS011;26970;49.900;10.774;2022-07-30T02:52:39;21.00;;;18.80;;
39502;SDS011;26970;49.900;10.774;2022-07-30T02:55:07;19.73;;;17.38;;
39502;SDS011;26970;49.900;10.774;2022-07-30T02:57:35;20.60;;;17.67;;
39502;SDS011;26970;49.900;10.774;2022-07-30T03:00:01;21.83;;;16.80;;
39502;SDS011;26970;49.900;10.774;2022-07-30T03:02:28;19.52;;;16.98;;
39502;SDS011;26970;49.900;10.774;2022-07-30T03:04:56;20.75;;;16.67;;
39502;SDS011;26970;49.900;10.774;2022-07-30T03:07:23;20.95;;;17.08;;
39502;SDS011;26970;49.900;10.774;2022-07-30T03:09:51;20.67;;;17.38;;
39502;SDS011;26970;49.900;10.774;2022-07-30T03:12:19;21.13;;;18.73;;
39502;SDS011;26970;49.900;10.774;2022-07-30T03:14:46;20.52;;;17.23;;
39502;SDS011;26970;49.900;10.774;2022-07-30T03:17:11;21.85;;;17.92;;
39502;SDS011;26970;49.900;10.774;2022-07-30T03:19:39;16.85;;;14.23;;
39502;SDS011;26970;49.900;10.774;2022-07-30T03:22:06;22.80;;;18.90;;
39502;SDS011;26970;49.900;10.774;2022-07-30T03:24:33;19.63;;;17.52;;
39502;SDS011;26970;49.900;10.774;2022-07-30T03:27:00;27.52;;;20.27;;
39502;SDS011;26970;49.900;10.774;2022-07-30T03:29:27;46.47;;;22.30;;
39502;SDS011;26970;49.900;10.774;2022-07-30T03:31:54;96.57;;;24.73;;
39502;SDS011;26970;49.900;10.774;2022-07-30T03:34:21;217.45;;;24.98;;
39502;SDS011;26970;49.900;10.774;2022-07-30T03:36:47;365.38;;;19.65;;
39502;SDS011;26970;49.900;10.774;2022-07-30T03:39:14;428.65;;;29.48;;
39502;SDS011;26970;49.900;10.774;2022-07-30T03:41:40;558.05;;;32.40;;
39502;SDS011;26970;49.900;10.774;2022-07-30T03:44:06;464.42;;;29.90;;
39502;SDS011;26970;49.900;10.774;2022-07-30T03:46:33;444.10;;;28.42;;
39502;SDS011;26970;49.900;10.774;2022-07-30T03:49:00;520.97;;;29.88;;
39502;SDS011;26970;49.900;10.774;2022-07-30T03:51:26;454.23;;;31.23;;
39502;SDS011;26970;49.900;10.774;2022-07-30T03:53:52;226.98;;;24.50;;
39502;SDS011;26970;49.900;10.774;2022-07-30T03:56:18;124.72;;;25.02;;
39502;SDS011;26970;49.900;10.774;2022-07-30T03:58:44;26.45;;;20.67;;
39502;SDS011;26970;49.900;10.774;2022-07-30T04:01:10;21.65;;;17.65;;
39502;SDS011;26970;49.900;10.774;2022-07-30T04:03:36;24.30;;;18.70;;
39502;SDS011;26970;49.900;10.774;2022-07-30T04:06:01;23.05;;;18.05;;
39502;SDS011;26970;49.900;10.774;2022-07-30T04:08:27;23.85;;;18.48;;
39502;SDS011;26970;49.900;10.774;2022-07-30T04:10:53;25.52;;;19.58;;
39502;SDS011;26970;49.900;10.774;2022-07-30T04:13:19;25.02;;;20.48;;
39502;SDS011;26970;49.900;10.774;2022-07-30T04:15:55;28.80;;;20.98;;
39502;SDS011;26970;49.900;10.774;2022-07-30T04:18:26;25.55;;;19.60;;
39502;SDS011;26970;49.900;10.774;2022-07-30T04:20:59;23.42;;;19.13;;
39502;SDS011;26970;49.900;10.774;2022-07-30T04:23:26;23.98;;;17.73;;
39502;SDS011;26970;49.900;10.774;2022-07-30T04:25:52;21.38;;;15.10;;
39502;SDS011;26970;49.900;10.774;2022-07-30T04:28:19;14.30;;;12.77;;
39502;SDS011;26970;49.900;10.774;2022-07-30T04:30:45;12.05;;;10.80;;
39502;SDS011;26970;49.900;10.774;2022-07-30T04:33:10;13.00;;;10.88;;
39502;SDS011;26970;49.900;10.774;2022-07-30T04:35:36;13.27;;;11.15;;
39502;SDS011;26970;49.900;10.774;2022-07-30T04:38:02;12.23;;;10.93;;
39502;SDS011;26970;49.900;10.774;2022-07-30T04:40:28;11.50;;;9.90;;
39502;SDS011;26970;49.900;10.774;2022-07-30T04:42:55;11.60;;;8.57;;
39502;SDS011;26970;49.900;10.774;2022-07-30T04:45:21;10.43;;;9.32;;
39502;SDS011;26970;49.900;10.774;2022-07-30T04:47:47;10.10;;;9.10;;
39502;SDS011;26970;49.900;10.774;2022-07-30T04:50:12;11.13;;;8.10;;
39502;SDS011;26970;49.900;10.774;2022-07-30T04:52:39;9.95;;;8.13;;
39502;SDS011;26970;49.900;10.774;2022-07-30T04:55:05;9.75;;;8.48;;
39502;SDS011;26970;49.900;10.774;2022-07-30T04:57:34;10.07;;;8.85;;
39502;SDS011;26970;49.900;10.774;2022-07-30T05:00:01;11.05;;;9.90;;
39502;SDS011;26970;49.900;10.774;2022-07-30T05:02:29;14.90;;;10.48;;
39502;SDS011;26970;49.900;10.774;2022-07-30T05:04:56;11.40;;;9.60;;
39502;SDS011;26970;49.900;10.774;2022-07-30T05:07:23;14.27;;;11.80;;
39502;SDS011;26970;49.900;10.774;2022-07-30T05:09:50;15.65;;;12.60;;
39502;SDS011;26970;49.900;10.774;2022-07-30T05:12:15;12.07;;;10.73;;
39502;SDS011;26970;49.900;10.774;2022-07-30T05:14:41;10.90;;;8.95;;
39502;SDS011;26970;49.900;10.774;2022-07-30T05:17:07;9.30;;;8.27;;
39502;SDS011;26970;49.900;10.774;2022-07-30T05:19:32;10.85;;;8.57;;
39502;SDS011;26970;49.900;10.774;2022-07-30T05:21:58;10.10;;;9.05;;
39502;SDS011;26970;49.900;10.774;2022-07-30T05:24:24;11.32;;;9.77;;
39502;SDS011;26970;49.900;10.774;2022-07-30T05:26:49;14.43;;;11.32;;
39502;SDS011;26970;49.900;10.774;2022-07-30T05:29:15;12.93;;;11.30;;
39502;SDS011;26970;49.900;10.774;2022-07-30T05:31:40;11.82;;;10.63;;
39502;SDS011;26970;49.900;10.774;2022-07-30T05:34:06;11.48;;;10.20;;
39502;SDS011;26970;49.900;10.774;2022-07-30T05:36:32;11.95;;;10.75;;
39502;SDS011;26970;49.900;10.774;2022-07-30T05:38:58;11.82;;;10.63;;
39502;SDS011;26970;49.900;10.774;2022-07-30T05:41:24;12.93;;;10.73;;
39502;SDS011;26970;49.900;10.774;2022-07-30T05:43:52;13.57;;;11.38;;
39502;SDS011;26970;49.900;10.774;2022-07-30T05:46:18;12.77;;;11.13;;
39502;SDS011;26970;49.900;10.774;2022-07-30T05:48:44;12.85;;;10.30;;
39502;SDS011;26970;49.900;10.774;2022-07-30T05:51:09;12.90;;;10.77;;
39502;SDS011;26970;49.900;10.774;2022-07-30T05:53:35;11.70;;;10.50;;
39502;SDS011;26970;49.900;10.774;2022-07-30T05:56:00;12.02;;;10.82;;
39502;SDS011;26970;49.900;10.774;2022-07-30T05:58:26;12.45;;;11.15;;
39502;SDS011;26970;49.900;10.774;2022-07-30T06:00:51;13.77;;;12.15;;
39502;SDS011;26970;49.900;10.774;2022-07-30T06:03:17;14.77;;;12.60;;
39502;SDS011;26970;49.900;10.774;2022-07-30T06:05:42;14.48;;;11.85;;
39502;SDS011;26970;49.900;10.774;2022-07-30T06:08:08;13.93;;;10.88;;
39502;SDS011;26970;49.900;10.774;2022-07-30T06:10:33;11.70;;;10.50;;
39502;SDS011;26970;49.900;10.774;2022-07-30T06:12:59;12.45;;;11.15;;
39502;SDS011;26970;49.900;10.774;2022-07-30T06:15:25;12.63;;;11.32;;
39502;SDS011;26970;49.900;10.774;2022-07-30T06:17:50;12.32;;;10.70;;
39502;SDS011;26970;49.900;10.774;2022-07-30T06:20:17;13.70;;;11.18;;
39502;SDS011;26970;49.900;10.774;2022-07-30T06:22:43;10.88;;;8.48;;
39502;SDS011;26970;49.900;10.774;2022-07-30T06:25:09;11.55;;;9.93;;
39502;SDS011;26970;49.900;10.774;2022-07-30T06:27:35;9.73;;;8.60;;
39502;SDS011;26970;49.900;10.774;2022-07-30T06:30:05;9.93;;;8.93;;
39502;SDS011;26970;49.900;10.774;2022-07-30T06:32:32;11.55;;;8.60;;
39502;SDS011;26970;49.900;10.774;2022-07-30T06:34:58;8.95;;;8.02;;
39502;SDS011;26970;49.900;10.774;2022-07-30T06:37:24;8.73;;;7.82;;
39502;SDS011;26970;49.900;10.774;2022-07-30T06:39:50;11.48;;;7.13;;
39502;SDS011;26970;49.900;10.774;2022-07-30T06:42:16;7.97;;;7.18;;
39502;SDS011;26970;49.900;10.774;2022-07-30T06:44:48;9.65;;;6.88;;
39502;SDS011;26970;49.900;10.774;2022-07-30T06:47:18;7.60;;;6.80;;
39502;SDS011;26970;49.900;10.774;2022-07-30T06:52:11;11.23;;;6.95;;
39502;SDS011;26970;49.900;10.774;2022-07-30T06:54:36;8.10;;;7.30;;
39502;SDS011;26970;49.900;10.774;2022-07-30T06:57:02;8.52;;;6.50;;
39502;SDS011;26970;49.900;10.774;2022-07-30T06:59:27;8.10;;;6.30;;
39502;SDS011;26970;49.900;10.774;2022-07-30T07:01:53;10.23;;;6.32;;
39502;SDS011;26970;49.900;10.774;2022-07-30T07:04:19;6.95;;;6.20;;
39502;SDS011;26970;49.900;10.774;2022-07-30T07:06:45;9.07;;;6.57;;
39502;SDS011;26970;49.900;10.774;2022-07-30T07:09:10;10.60;;;7.50;;
39502;SDS011;26970;49.900;10.774;2022-07-30T07:11:36;9.43;;;6.43;;
39502;SDS011;26970;49.900;10.774;2022-07-30T07:14:01;9.30;;;6.63;;
39502;SDS011;26970;49.900;10.774;2022-07-30T07:16:27;7.63;;;6.78;;
39502;SDS011;26970;49.900;10.774;2022-07-30T07:18:52;7.28;;;6.30;;
39502;SDS011;26970;49.900;10.774;2022-07-30T07:21:19;8.10;;;6.38;;
39502;SDS011;26970;49.900;10.774;2022-07-30T07:23:45;10.88;;;6.80;;
39502;SDS011;26970;49.900;10.774;2022-07-30T07:26:12;10.52;;;6.80;;
39502;SDS011;26970;49.900;10.774;2022-07-30T07:28:38;7.88;;;6.60;;
39502;SDS011;26970;49.900;10.774;2022-07-30T07:31:04;9.23;;;6.82;;
39502;SDS011;26970;49.900;10.774;2022-07-30T07:33:31;9.43;;;6.90;;
39502;SDS011;26970;49.900;10.774;2022-07-30T07:35:57;7.70;;;6.90;;
39502;SDS011;26970;49.900;10.774;2022-07-30T07:38:22;7.53;;;6.72;;
39502;SDS011;26970;49.900;10.774;2022-07-30T07:40:48;10.05;;;7.03;;
39502;SDS011;26970;49.900;10.774;2022-07-30T07:43:13;7.72;;;6.93;;
39502;SDS011;26970;49.900;10.774;2022-07-30T07:45:40;8.45;;;7.45;;
39502;SDS011;26970;49.900;10.774;2022-07-30T07:48:06;11.02;;;7.50;;
39502;SDS011;26970;49.900;10.774;2022-07-30T07:50:31;8.82;;;6.80;;
39502;SDS011;26970;49.900;10.774;2022-07-30T07:52:57;8.68;;;7.50;;
39502;SDS011;26970;49.900;10.774;2022-07-30T07:55:23;8.20;;;7.05;;
39502;SDS011;26970;49.900;10.774;2022-07-30T07:57:49;8.80;;;7.65;;
39502;SDS011;26970;49.900;10.774;2022-07-30T08:00:15;8.90;;;7.55;;
39502;SDS011;26970;49.900;10.774;2022-07-30T08:02:44;8.93;;;7.20;;
39502;SDS011;26970;49.900;10.774;2022-07-30T08:05:10;8.80;;;7.22;;
39502;SDS011;26970;49.900;10.774;2022-07-30T08:07:36;9.10;;;7.45;;
39502;SDS011;26970;49.900;10.774;2022-07-30T08:10:03;8.80;;;7.90;;
39502;SDS011;26970;49.900;10.774;2022-07-30T08:12:29;8.40;;;7.60;;
39502;SDS011;26970;49.900;10.774;2022-07-30T08:14:55;10.27;;;7.50;;
39502;SDS011;26970;49.900;10.774;2022-07-30T08:17:21;10.15;;;7.43;;
39502;SDS011;26970;49.900;10.774;2022-07-30T08:19:46;12.35;;;7.45;;
39502;SDS011;26970;49.900;10.774;2022-07-30T08:22:12;9.30;;;7.07;;
39502;SDS011;26970;49.900;10.774;2022-07-30T08:24:37;7.88;;;7.10;;
39502;SDS011;26970;49.900;10.774;2022-07-30T08:27:03;9.02;;;6.70;;
39502;SDS011;26970;49.900;10.774;2022-07-30T08:29:29;11.82;;;6.40;;
39502;SDS011;26970;49.900;10.774;2022-07-30T08:31:54;9.98;;;6.45;;
39502;SDS011;26970;49.900;10.774;2022-07-30T08:34:20;8.30;;;6.10;;
39502;SDS011;26970;49.900;10.774;2022-07-30T08:36:46;7.32;;;5.70;;
39502;SDS011;26970;49.900;10.774;2022-07-30T08:39:11;6.95;;;6.13;;
39502;SDS011;26970;49.900;10.774;2022-07-30T08:41:37;9.95;;;6.25;;
39502;SDS011;26970;49.900;10.774;2022-07-30T08:44:04;7.75;;;5.70;;
39502;SDS011;26970;49.900;10.774;2022-07-30T08:46:35;7.35;;;5.53;;
39502;SDS011;26970;49.900;10.774;2022-07-30T08:49:04;6.38;;;5.43;;
39502;SDS011;26970;49.900;10.774;2022-07-30T08:51:30;11.50;;;5.60;;
39502;SDS011;26970;49.900;10.774;2022-07-30T08:53:56;7.13;;;5.15;;
39502;SDS011;26970;49.900;10.774;2022-07-30T08:56:22;5.80;;;4.47;;
39502;SDS011;26970;49.900;10.774;2022-07-30T08:58:48;11.02;;;4.70;;
39502;SDS011;26970;49.900;10.774;2022-07-30T09:01:15;5.70;;;4.32;;
39502;SDS011;26970;49.900;10.774;2022-07-30T09:03:40;8.43;;;4.20;;
39502;SDS011;26970;49.900;10.774;2022-07-30T09:06:06;6.25;;;3.67;;
39502;SDS011;26970;49.900;10.774;2022-07-30T09:08:31;5.95;;;3.63;;
39502;SDS011;26970;49.900;10.774;2022-07-30T09:10:57;5.93;;;4.10;;
39502;SDS011;26970;49.900;10.774;2022-07-30T09:13:30;6.68;;;4.07;;
39502;SDS011;26970;49.900;10.774;2022-07-30T09:15:59;4.68;;;3.83;;
39502;SDS011;26970;49.900;10.774;2022-07-30T09:18:32;7.95;;;3.80;;
39502;SDS011;26970;49.900;10.774;2022-07-30T09:21:13;7.25;;;4.10;;
39502;SDS011;26970;49.900;10.774;2022-07-30T09:23:55;7.80;;;3.55;;
39502;SDS011;26970;49.900;10.774;2022-07-30T09:26:24;7.50;;;3.60;;
39502;SDS011;26970;49.900;10.774;2022-07-30T09:28:50;12.27;;;5.13;;
39502;SDS011;26970;49.900;10.774;2022-07-30T09:31:16;5.38;;;3.50;;
39502;SDS011;26970;49.900;10.774;2022-07-30T09:33:43;4.78;;;3.10;;
39502;SDS011;26970;49.900;10.774;2022-07-30T09:36:10;5.22;;;3.13;;
39502;SDS011;26970;49.900;10.774;2022-07-30T09:38:45;6.70;;;3.42;;
39502;SDS011;26970;49.900;10.774;2022-07-30T09:41:15;5.93;;;2.95;;
39502;SDS011;26970;49.900;10.774;2022-07-30T09:43:47;5.45;;;3.25;;
39502;SDS011;26970;49.900;10.774;2022-07-30T09:46:14;7.47;;;3.00;;
39502;SDS011;26970;49.900;10.774;2022-07-30T09:48:40;8.63;;;3.95;;
39502;SDS011;26970;49.900;10.774;2022-07-30T09:51:07;8.20;;;2.90;;
39502;SDS011;26970;49.900;10.774;2022-07-30T09:53:33;4.85;;;3.08;;
39502;SDS011;26970;49.900;10.774;2022-07-30T09:55:59;4.82;;;3.08;;
39502;SDS011;26970;49.900;10.774;2022-07-30T09:58:38;8.10;;;3.10;;
39502;SDS011;26970;49.900;10.774;2022-07-30T10:01:05;5.80;;;3.10;;
39502;SDS011;26970;49.900;10.774;2022-07-30T10:03:30;5.78;;;2.80;;
39502;SDS011;26970;49.900;10.774;2022-07-30T10:05:57;5.00;;;3.10;;
39502;SDS011;26970;49.900;10.774;2022-07-30T10:11:10;6.13;;;2.85;;
39502;SDS011;26970;49.900;10.774;2022-07-30T10:13:38;6.32;;;3.00;;
39502;SDS011;26970;49.900;10.774;2022-07-30T10:16:04;7.93;;;2.95;;
39502;SDS011;26970;49.900;10.774;2022-07-30T10:18:30;5.68;;;2.47;;
39502;SDS011;26970;49.900;10.774;2022-07-30T10:20:56;5.40;;;2.60;;
39502;SDS011;26970;49.900;10.774;2022-07-30T10:23:25;30.33;;;3.28;;
39502;SDS011;26970;49.900;10.774;2022-07-30T10:25:54;4.57;;;2.72;;
39502;SDS011;26970;49.900;10.774;2022-07-30T10:28:20;3.65;;;2.50;;
39502;SDS011;26970;49.900;10.774;2022-07-30T10:30:50;4.40;;;2.40;;
39502;SDS011;26970;49.900;10.774;2022-07-30T10:33:17;5.18;;;2.30;;
39502;SDS011;26970;49.900;10.774;2022-07-30T10:35:42;5.35;;;2.50;;
39502;SDS011;26970;49.900;10.774;2022-07-30T10:38:09;4.18;;;2.53;;
39502;SDS011;26970;49.900;10.774;2022-07-30T10:40:37;4.40;;;2.30;;
39502;SDS011;26970;49.900;10.774;2022-07-30T10:46:35;6.47;;;2.47;;
39502;SDS011;26970;49.900;10.774;2022-07-30T10:49:22;8.00;;;2.42;;
39502;SDS011;26970;49.900;10.774;2022-07-30T10:51:50;5.78;;;2.15;;
39502;SDS011;26970;49.900;10.774;2022-07-30T10:54:34;4.72;;;2.40;;
39502;SDS011;26970;49.900;10.774;2022-07-30T10:59:29;3.42;;;2.22;;
39502;SDS011;26970;49.900;10.774;2022-07-30T11:02:23;5.75;;;2.60;;
39502;SDS011;26970;49.900;10.774;2022-07-30T11:04:49;5.32;;;2.50;;
39502;SDS011;26970;49.900;10.774;2022-07-30T11:07:35;3.80;;;2.20;;
39502;SDS011;26970;49.900;10.774;2022-07-30T11:10:01;6.07;;;2.38;;
39502;SDS011;26970;49.900;10.774;2022-07-30T11:15:09;5.88;;;2.50;;
39502;SDS011;26970;49.900;10.774;2022-07-30T11:20:31;6.97;;;2.38;;
39502;SDS011;26970;49.900;10.774;2022-07-30T11:23:07;4.90;;;2.40;;
39502;SDS011;26970;49.900;10.774;2022-07-30T11:25:42;3.45;;;2.20;;
39502;SDS011;26970;49.900;10.774;2022-07-30T11:28:21;3.47;;;2.08;;
39502;SDS011;26970;49.900;10.774;2022-07-30T11:31:01;5.13;;;2.05;;
39502;SDS011;26970;49.900;10.774;2022-07-30T11:33:26;4.70;;;2.22;;
39502;SDS011;26970;49.900;10.774;2022-07-30T11:41:21;4.50;;;2.20;;
39502;SDS011;26970;49.900;10.774;2022-07-30T11:43:47;3.78;;;2.30;;
39502;SDS011;26970;49.900;10.774;2022-07-30T11:46:13;4.30;;;2.30;;
39502;SDS011;26970;49.900;10.774;2022-07-30T11:48:56;3.67;;;2.60;;
39502;SDS011;26970;49.900;10.774;2022-07-30T11:52:05;5.90;;;2.88;;
39502;SDS011;26970;49.900;10.774;2022-07-30T11:54:24;4.50;;;2.40;;
39502;SDS011;26970;49.900;10.774;2022-07-30T11:56:54;4.32;;;2.53;;
39502;SDS011;26970;49.900;10.774;2022-07-30T11:59:23;5.38;;;3.00;;
39502;SDS011;26970;49.900;10.774;2022-07-30T12:01:49;4.57;;;2.72;;
39502;SDS011;26970;49.900;10.774;2022-07-30T12:04:16;7.40;;;3.00;;
39502;SDS011;26970;49.900;10.774;2022-07-30T12:06:43;4.88;;;2.80;;
39502;SDS011;26970;49.900;10.774;2022-07-30T12:09:10;6.78;;;3.15;;
39502;SDS011;26970;49.900;10.774;2022-07-30T12:11:35;7.53;;;3.17;;
39502;SDS011;26970;49.900;10.774;2022-07-30T12:14:01;5.13;;;3.10;;
39502;SDS011;26970;49.900;10.774;2022-07-30T12:16:31;11.13;;;2.80;;
39502;SDS011;26970;49.900;10.774;2022-07-30T12:19:04;5.72;;;3.05;;
39502;SDS011;26970;49.900;10.774;2022-07-30T12:21:30;7.57;;;3.10;;
39502;SDS011;26970;49.900;10.774;2022-07-30T12:23:57;6.53;;;3.00;;
39502;SDS011;26970;49.900;10.774;2022-07-30T12:26:27;8.13;;;3.38;;
39502;SDS011;26970;49.900;10.774;2022-07-30T12:28:58;10.50;;;3.42;;
39502;SDS011;26970;49.900;10.774;2022-07-30T12:31:26;6.35;;;3.08;;
39502;SDS011;26970;49.900;10.774;2022-07-30T12:33:52;6.35;;;3.05;;
39502;SDS011;26970;49.900;10.774;2022-07-30T12:36:28;7.07;;;3.40;;
39502;SDS011;26970;49.900;10.774;2022-07-30T12:38:55;7.72;;;3.45;;
39502;SDS011;26970;49.900;10.774;2022-07-30T12:41:22;7.43;;;3.40;;
39502;SDS011;26970;49.900;10.774;2022-07-30T12:44:04;6.53;;;3.38;;
39502;SDS011;26970;49.900;10.774;2022-07-30T12:46:35;9.60;;;3.10;;
39502;SDS011;26970;49.900;10.774;2022-07-30T12:49:03;7.05;;;2.97;;
39502;SDS011;26970;49.900;10.774;2022-07-30T12:51:30;7.88;;;3.33;;
39502;SDS011;26970;49.900;10.774;2022-07-30T12:54:17;5.53;;;3.28;;
39502;SDS011;26970;49.900;10.774;2022-07-30T12:56:57;4.88;;;2.95;;
39502;SDS011;26970;49.900;10.774;2022-07-30T12:59:24;5.35;;;3.13;;
39502;SDS011;26970;49.900;10.774;2022-07-30T13:01:50;6.72;;;3.08;;
39502;SDS011;26970;49.900;10.774;2022-07-30T13:04:16;5.82;;;3.22;;
39502;SDS011;26970;49.900;10.774;2022-07-30T13:06:42;5.28;;;3.22;;
39502;SDS011;26970;49.900;10.774;2022-07-30T13:09:19;10.15;;;3.35;;
39502;SDS011;26970;49.900;10.774;2022-07-30T13:11:45;5.75;;;2.80;;
39502;SDS011;26970;49.900;10.774;2022-07-30T13:14:12;6.85;;;3.10;;
39502;SDS011;26970;49.900;10.774;2022-07-30T13:16:40;7.93;;;3.15;;
39502;SDS011;26970;49.900;10.774;2022-07-30T13:19:06;6.38;;;2.83;;
39502;SDS011;26970;49.900;10.774;2022-07-30T13:21:36;5.05;;;2.70;;
39502;SDS011;26970;49.900;10.774;2022-07-30T13:24:02;5.97;;;3.17;;
39502;SDS011;26970;49.900;10.774;2022-07-30T13:26:28;6.88;;;3.03;;
39502;SDS011;26970;49.900;10.774;2022-07-30T13:28:54;8.82;;;3.28;;
39502;SDS011;26970;49.900;10.774;2022-07-30T13:31:20;6.22;;;2.72;;
39502;SDS011;26970;49.900;10.774;2022-07-30T13:33:46;6.32;;;3.08;;
39502;SDS011;26970;49.900;10.774;2022-07-30T13:36:12;9.63;;;3.00;;
39502;SDS011;26970;49.900;10.774;2022-07-30T13:38:38;4.38;;;2.83;;
39502;SDS011;26970;49.900;10.774;2022-07-30T13:41:04;5.30;;;2.83;;
39502;SDS011;26970;49.900;10.774;2022-07-30T13:43:29;9.57;;;3.10;;
39502;SDS011;26970;49.900;10.774;2022-07-30T13:45:58;6.22;;;3.17;;
39502;SDS011;26970;49.900;10.774;2022-07-30T13:48:27;5.65;;;3.17;;
39502;SDS011;26970;49.900;10.774;2022-07-30T13:50:53;5.90;;;2.95;;
39502;SDS011;26970;49.900;10.774;2022-07-30T13:53:18;6.20;;;3.00;;
39502;SDS011;26970;49.900;10.774;2022-07-30T13:55:44;4.10;;;2.80;;
39502;SDS011;26970;49.900;10.774;2022-07-30T13:58:13;5.15;;;3.03;;
39502;SDS011;26970;49.900;10.774;2022-07-30T14:00:39;8.18;;;3.40;;
39502;SDS011;26970;49.900;10.774;2022-07-30T14:03:07;5.95;;;3.10;;
39502;SDS011;26970;49.900;10.774;2022-07-30T14:05:34;7.55;;;3.58;;
39502;SDS011;26970;49.900;10.774;2022-07-30T14:08:01;7.97;;;4.72;;
39502;SDS011;26970;49.900;10.774;2022-07-30T14:10:28;9.85;;;4.63;;
39502;SDS011;26970;49.900;10.774;2022-07-30T14:12:54;10.95;;;4.65;;
39502;SDS011;26970;49.900;10.774;2022-07-30T14:15:23;9.35;;;5.57;;
39502;SDS011;26970;49.900;10.774;2022-07-30T14:17:55;8.85;;;5.43;;
39502;SDS011;26970;49.900;10.774;2022-07-30T14:20:21;23.30;;;6.22;;
39502;SDS011;26970;49.900;10.774;2022-07-30T14:22:47;12.30;;;6.00;;
39502;SDS011;26970;49.900;10.774;2022-07-30T14:25:12;12.73;;;6.57;;
39502;SDS011;26970;49.900;10.774;2022-07-30T14:27:38;10.57;;;5.53;;
39502;SDS011;26970;49.900;10.774;2022-07-30T14:30:05;11.43;;;6.00;;
39502;SDS011;26970;49.900;10.774;2022-07-30T14:32:33;10.30;;;4.97;;
39502;SDS011;26970;49.900;10.774;2022-07-30T14:34:59;10.57;;;4.68;;
39502;SDS011;26970;49.900;10.774;2022-07-30T14:37:24;5.80;;;4.38;;
39502;SDS011;26970;49.900;10.774;2022-07-30T14:39:50;8.40;;;4.13;;
39502;SDS011;26970;49.900;10.774;2022-07-30T14:42:15;10.85;;;4.40;;
39502;SDS011;26970;49.900;10.774;2022-07-30T14:44:41;5.68;;;4.30;;
39502;SDS011;26970;49.900;10.774;2022-07-30T14:47:07;5.68;;;4.05;;
39502;SDS011;26970;49.900;10.774;2022-07-30T14:49:32;7.03;;;4.78;;
39502;SDS011;26970;49.900;10.774;2022-07-30T14:51:58;8.93;;;3.80;;
39502;SDS011;26970;49.900;10.774;2022-07-30T14:54:24;7.38;;;4.20;;
39502;SDS011;26970;49.900;10.774;2022-07-30T14:56:51;6.38;;;3.65;;